Time;durP1;ratioP1;P1;durP2;ratioP2;P2;SDS_P1;SDS_P2;PMS_P1;PMS_P2;Temp;Humidity;BMP_temperature;BMP_pressure;BME280_temperature;BME280_humidity;BME280_pressure;Samples;Min_cycle;Max_cycle;Signal;HPM_P1;HPM_P2
2022/06/10 00:01:10;;;;;;;0.00;0.00;;;12.00;99.90;;;;;;5053190;28;20021;-76
2022/06/10 00:03:36;;;;;;;0.08;0.08;;;12.10;99.90;;;;;;5035207;28;20021;-76
2022/06/10 00:06:05;;;;;;;0.00;0.00;;;12.10;99.90;;;;;;5053407;28;20096;-76
2022/06/10 00:08:35;;;;;;;0.10;0.10;;;12.20;99.90;;;;;;5034822;28;20029;-75
2022/06/10 00:11:01;;;;;;;0.10;0.10;;;12.10;99.90;;;;;;5053106;28;20350;-76
2022/06/10 00:13:30;;;;;;;0.40;0.40;;;12.10;99.90;;;;;;5053005;28;20380;-76
2022/06/10 00:15:57;;;;;;;0.08;0.08;;;12.10;99.90;;;;;;5018537;28;20500;-76
2022/06/10 00:18:24;;;;;;;0.00;0.00;;;12.10;99.90;;;;;;5052643;28;20033;-76
2022/06/10 00:20:50;;;;;;;0.00;0.00;;;12.10;99.90;;;;;;5034951;28;20029;-76
2022/06/10 00:23:16;;;;;;;0.10;0.10;;;12.20;99.90;;;;;;5034921;28;20513;-76
2022/06/10 00:25:43;;;;;;;2.58;0.75;;;12.30;99.90;;;;;;5018309;28;20017;-76
2022/06/10 00:28:09;;;;;;;0.10;0.10;;;12.20;99.90;;;;;;5034481;28;20025;-76
2022/06/10 00:30:36;;;;;;;1.33;0.35;;;12.20;99.90;;;;;;5052444;28;20673;-76
2022/06/10 00:33:03;;;;;;;0.52;0.40;;;12.20;99.90;;;;;;5034306;28;20121;-76
2022/06/10 00:35:29;;;;;;;0.10;0.10;;;12.20;99.90;;;;;;5018201;28;20029;-76
2022/06/10 00:37:55;;;;;;;1.13;0.57;;;12.20;99.90;;;;;;5052210;28;20052;-76
2022/06/10 00:40:28;;;;;;;2.47;0.77;;;12.20;99.90;;;;;;5034841;28;20064;-76
2022/06/10 00:42:56;;;;;;;0.10;0.10;;;12.10;99.90;;;;;;5052435;28;20021;-76
2022/06/10 00:45:50;;;;;;;3.72;0.65;;;12.10;99.90;;;;;;5034460;28;20542;-75
2022/06/10 00:48:43;;;;;;;0.10;0.10;;;12.00;99.90;;;;;;5052041;28;20029;-76
2022/06/10 00:51:19;;;;;;;0.10;0.10;;;12.00;99.90;;;;;;5052327;28;20036;-76
2022/06/10 00:53:50;;;;;;;0.15;0.15;;;12.00;99.90;;;;;;5051924;28;20021;-76
2022/06/10 00:56:20;;;;;;;0.40;0.40;;;11.90;99.90;;;;;;5052193;28;20021;-76
2022/06/10 00:58:58;;;;;;;0.25;0.25;;;11.90;99.90;;;;;;5052105;28;20384;-76
2022/06/10 01:01:25;;;;;;;0.00;0.00;;;12.00;99.90;;;;;;5034135;28;20044;-74
2022/06/10 01:03:52;;;;;;;0.10;0.10;;;12.00;99.90;;;;;;5034268;28;20021;-76
2022/06/10 01:06:18;;;;;;;0.30;0.30;;;12.10;99.90;;;;;;5017730;28;20785;-76
2022/06/10 01:08:46;;;;;;;0.08;0.08;;;12.10;99.90;;;;;;5051908;28;20027;-75
2022/06/10 01:11:40;;;;;;;0.03;0.03;;;12.10;99.90;;;;;;5052124;28;20100;-76
2022/06/10 01:14:27;;;;;;;0.10;0.10;;;12.00;99.90;;;;;;5017663;28;20025;-76
2022/06/10 01:17:16;;;;;;;0.10;0.10;;;12.00;99.90;;;;;;5034025;28;20017;-76
2022/06/10 01:20:17;;;;;;;0.20;0.20;;;12.00;99.90;;;;;;5034092;28;20025;-75
2022/06/10 01:23:30;;;;;;;0.93;0.85;;;12.00;99.90;;;;;;5007577;28;20622;-75
2022/06/10 01:26:20;;;;;;;0.00;0.00;;;12.00;99.90;;;;;;5034001;28;20060;-76
2022/06/10 01:29:14;;;;;;;0.10;0.10;;;12.20;99.90;;;;;;5051629;28;20029;-76
2022/06/10 01:32:00;;;;;;;0.45;0.32;;;12.10;99.90;;;;;;5017499;28;20043;-76
2022/06/10 01:35:01;;;;;;;0.10;0.10;;;12.10;99.90;;;;;;5051827;28;20040;-76
2022/06/10 01:37:38;;;;;;;0.60;0.20;;;12.10;99.90;;;;;;5033828;28;20093;-75
2022/06/10 01:40:13;;;;;;;0.10;0.10;;;12.10;99.90;;;;;;5034147;28;20017;-76
2022/06/10 01:43:13;;;;;;;1.05;0.28;;;12.20;99.90;;;;;;5051739;28;20143;-75
2022/06/10 01:46:02;;;;;;;0.47;0.47;;;12.10;99.90;;;;;;5018226;28;20049;-75
2022/06/10 01:48:43;;;;;;;0.03;0.03;;;12.00;99.90;;;;;;5054641;28;20111;-76
2022/06/10 01:51:11;;;;;;;0.10;0.10;;;11.90;99.90;;;;;;5037863;28;20025;-75
2022/06/10 01:53:49;;;;;;;0.08;0.08;;;12.00;99.90;;;;;;5055187;28;20083;-76
2022/06/10 01:56:21;;;;;;;0.20;0.20;;;12.10;99.90;;;;;;5055622;28;20322;-76
2022/06/10 01:58:59;;;;;;;0.10;0.10;;;12.10;99.90;;;;;;5055556;28;20025;-76
2022/06/10 02:01:39;;;;;;;25.35;1.65;;;12.10;99.90;;;;;;5037644;28;20476;-76
2022/06/10 02:04:19;;;;;;;0.10;0.10;;;12.10;99.90;;;;;;5055366;28;20224;-76
2022/06/10 02:07:11;;;;;;;0.10;0.10;;;12.10;99.90;;;;;;5055129;28;20028;-76
2022/06/10 02:09:46;;;;;;;0.10;0.10;;;12.30;99.90;;;;;;5037363;28;20024;-76
2022/06/10 02:12:39;;;;;;;0.10;0.10;;;12.30;99.90;;;;;;5037535;28;20044;-76
2022/06/10 02:15:19;;;;;;;0.10;0.10;;;12.30;99.90;;;;;;5047022;28;20520;-76
2022/06/10 02:17:58;;;;;;;0.00;0.00;;;12.40;99.90;;;;;;5054876;28;20427;-75
2022/06/10 02:20:26;;;;;;;0.20;0.20;;;12.70;99.90;;;;;;5055170;28;20415;-76
2022/06/10 02:22:55;;;;;;;0.10;0.10;;;12.60;99.90;;;;;;5037171;28;20093;-76
2022/06/10 02:25:29;;;;;;;0.10;0.10;;;12.70;99.90;;;;;;5054980;28;20026;-76
2022/06/10 02:28:01;;;;;;;0.20;0.20;;;12.60;99.90;;;;;;5036893;28;20037;-76
2022/06/10 02:30:38;;;;;;;0.22;0.22;;;12.50;99.90;;;;;;5054855;28;20035;-76
2022/06/10 02:33:04;;;;;;;0.10;0.10;;;12.40;99.90;;;;;;5054864;28;20498;-75
2022/06/10 02:35:43;;;;;;;0.10;0.10;;;12.50;99.90;;;;;;5054791;28;20112;-75
2022/06/10 02:38:31;;;;;;;0.10;0.10;;;12.50;99.90;;;;;;5054459;28;20072;-76
2022/06/10 02:41:04;;;;;;;0.17;0.17;;;12.50;99.90;;;;;;5020301;28;20035;-76
2022/06/10 02:43:30;;;;;;;0.10;0.10;;;12.60;99.90;;;;;;5036735;28;20440;-76
2022/06/10 02:46:18;;;;;;;0.10;0.10;;;12.60;99.90;;;;;;5036734;28;20041;-75
2022/06/10 02:49:05;;;;;;;0.10;0.10;;;12.70;99.90;;;;;;5054425;28;20029;-76
2022/06/10 02:51:31;;;;;;;0.20;0.20;;;12.60;99.90;;;;;;5019989;28;20477;-76
2022/06/10 02:53:58;;;;;;;0.10;0.10;;;12.40;99.90;;;;;;5036546;28;20369;-76
2022/06/10 02:56:27;;;;;;;0.10;0.10;;;12.30;99.90;;;;;;5036174;28;20074;-76
2022/06/10 03:02:00;;;;;;;0.08;0.08;;;12.30;99.90;;;;;;5054069;28;20082;-76
2022/06/10 03:04:46;;;;;;;0.00;0.00;;;12.40;99.90;;;;;;5054248;28;20017;-76
2022/06/10 03:07:32;;;;;;;0.10;0.10;;;12.40;99.90;;;;;;5036272;28;20013;-76
2022/06/10 03:10:22;;;;;;;0.00;0.00;;;12.50;99.90;;;;;;5036098;28;20021;-76
2022/06/10 03:13:04;;;;;;;0.28;0.28;;;12.40;99.90;;;;;;5054042;28;20022;-76
2022/06/10 03:15:53;;;;;;;0.10;0.10;;;12.40;99.90;;;;;;5054088;28;20399;-76
2022/06/10 03:18:30;;;;;;;0.10;0.10;;;12.40;99.90;;;;;;5035799;28;20049;-76
2022/06/10 03:21:07;;;;;;;0.25;0.25;;;12.40;99.90;;;;;;5054083;28;20029;-76
2022/06/10 03:23:54;;;;;;;0.10;0.10;;;12.30;99.90;;;;;;5036023;28;20052;-76
2022/06/10 03:26:36;;;;;;;0.10;0.10;;;12.40;99.90;;;;;;5035717;28;20100;-75
2022/06/10 03:29:14;;;;;;;0.10;0.10;;;12.40;99.90;;;;;;5019172;28;20435;-76
2022/06/10 03:31:44;;;;;;;0.10;0.10;;;12.60;99.90;;;;;;5053682;28;20515;-76
2022/06/10 03:34:30;;;;;;;0.10;0.10;;;12.70;99.90;;;;;;5035808;28;20053;-76
2022/06/10 03:36:59;;;;;;;0.13;0.13;;;12.70;99.90;;;;;;5052897;28;20048;-76
2022/06/10 03:39:25;;;;;;;0.10;0.10;;;12.60;99.90;;;;;;5035762;28;20116;-76
2022/06/10 03:42:04;;;;;;;0.25;0.25;;;12.70;99.90;;;;;;5035585;28;20033;-75
2022/06/10 03:44:32;;;;;;;0.10;0.10;;;12.70;99.90;;;;;;5053476;28;20361;-76
2022/06/10 03:46:58;;;;;;;0.10;0.10;;;12.70;99.90;;;;;;5053184;28;20052;-75
2022/06/10 03:49:31;;;;;;;0.43;0.43;;;12.60;99.90;;;;;;5053150;28;20029;-76
2022/06/10 03:51:58;;;;;;;0.10;0.10;;;12.50;99.90;;;;;;5035597;28;20076;-76
2022/06/10 03:54:24;;;;;;;0.10;0.10;;;12.50;99.90;;;;;;5035210;28;20025;-76
2022/06/10 03:56:52;;;;;;;0.10;0.10;;;12.70;99.90;;;;;;5035046;28;20025;-76
2022/06/10 03:59:19;;;;;;;0.30;0.30;;;12.70;99.90;;;;;;5018953;28;20128;-76
2022/06/10 04:01:45;;;;;;;0.13;0.13;;;12.60;99.90;;;;;;5052991;28;20057;-76
2022/06/10 04:04:11;;;;;;;0.10;0.10;;;12.50;99.90;;;;;;5018712;28;20049;-76
2022/06/10 04:06:37;;;;;;;0.30;0.30;;;12.50;99.90;;;;;;5018436;28;20094;-76
2022/06/10 04:09:03;;;;;;;0.10;0.10;;;12.60;99.90;;;;;;5051981;28;20029;-76
2022/06/10 04:11:29;;;;;;;0.05;0.05;;;12.50;99.90;;;;;;5035163;28;20029;-76
2022/06/10 04:13:55;;;;;;;0.10;0.10;;;12.60;99.90;;;;;;5052871;28;20029;-76
2022/06/10 04:16:21;;;;;;;0.10;0.10;;;12.60;99.90;;;;;;5052560;28;20017;-76
2022/06/10 04:18:47;;;;;;;0.10;0.10;;;12.70;99.90;;;;;;5018425;28;20044;-76
2022/06/10 04:21:13;;;;;;;0.10;0.10;;;12.70;99.90;;;;;;5052705;28;20027;-76
2022/06/10 04:23:38;;;;;;;0.30;0.30;;;12.70;99.90;;;;;;5034715;28;20036;-76
2022/06/10 04:26:04;;;;;;;9.40;1.75;;;12.60;99.90;;;;;;5052675;28;20591;-76
2022/06/10 04:28:30;;;;;;;0.50;0.38;;;12.50;99.90;;;;;;5052466;28;20021;-76
2022/06/10 04:30:56;;;;;;;0.10;0.10;;;12.50;99.90;;;;;;5052956;28;20500;-76
2022/06/10 04:33:22;;;;;;;0.10;0.10;;;12.50;99.90;;;;;;5052588;28;20033;-76
2022/06/10 04:35:49;;;;;;;0.10;0.10;;;12.60;99.90;;;;;;5034774;28;20139;-76
2022/06/10 04:38:19;;;;;;;0.10;0.10;;;12.80;99.90;;;;;;5034326;28;20029;-75
2022/06/10 04:40:46;;;;;;;0.10;0.10;;;12.80;99.90;;;;;;5034617;28;20502;-76
2022/06/10 04:43:12;;;;;;;0.10;0.10;;;12.80;99.90;;;;;;5034434;28;20020;-76
2022/06/10 04:45:45;;;;;;;0.10;0.10;;;12.90;99.90;;;;;;5034537;28;20027;-76
2022/06/10 04:48:11;;;;;;;0.10;0.10;;;13.20;99.90;;;;;;5034139;28;20479;-76
2022/06/10 04:50:38;;;;;;;0.03;0.03;;;13.40;99.90;;;;;;5052247;28;20024;-75
2022/06/10 04:53:04;;;;;;;0.10;0.10;;;13.20;99.90;;;;;;5052192;28;20021;-76
2022/06/10 04:55:29;;;;;;;0.20;0.20;;;13.10;99.90;;;;;;5017789;28;20067;-76
2022/06/10 04:57:56;;;;;;;0.00;0.00;;;13.10;99.90;;;;;;5051932;28;20111;-75
2022/06/10 05:00:26;;;;;;;0.10;0.10;;;13.20;99.90;;;;;;5034267;28;20510;-75
2022/06/10 05:02:52;;;;;;;0.10;0.10;;;13.30;99.90;;;;;;5034288;28;20040;-76
2022/06/10 05:05:18;;;;;;;0.10;0.10;;;13.50;99.90;;;;;;5034125;28;20365;-76
2022/06/10 05:07:44;;;;;;;0.10;0.10;;;13.60;99.90;;;;;;5033696;28;20070;-76
2022/06/10 05:10:15;;;;;;;0.05;0.05;;;13.50;99.90;;;;;;5052068;28;20041;-76
2022/06/10 05:12:42;;;;;;;0.10;0.10;;;13.50;99.90;;;;;;5052059;28;20021;-76
2022/06/10 05:15:08;;;;;;;0.10;0.10;;;13.40;99.90;;;;;;5034062;28;20116;-76
2022/06/10 05:17:34;;;;;;;0.20;0.20;;;13.30;99.90;;;;;;5051741;28;20033;-76
2022/06/10 05:20:17;;;;;;;0.10;0.10;;;13.20;99.90;;;;;;5035810;28;20025;-75
2022/06/10 05:22:44;;;;;;;0.05;0.05;;;13.20;99.90;;;;;;5028071;28;20056;-76
2022/06/10 05:25:15;;;;;;;0.10;0.10;;;13.40;99.90;;;;;;5051709;28;20064;-76
2022/06/10 05:27:53;;;;;;;0.10;0.10;;;13.50;99.90;;;;;;5050482;28;20021;-76
2022/06/10 05:30:25;;;;;;;0.10;0.10;;;13.60;99.90;;;;;;5051363;28;20041;-76
2022/06/10 05:32:51;;;;;;;0.10;0.10;;;13.60;99.90;;;;;;5052555;28;20361;-75
2022/06/10 05:37:46;;;;;;;0.10;0.10;;;13.50;99.90;;;;;;5070699;28;20056;-70
2022/06/10 05:40:14;;;;;;;0.20;0.20;;;13.40;99.90;;;;;;5071977;28;20025;-70
2022/06/10 05:42:40;;;;;;;0.20;0.20;;;13.50;99.90;;;;;;5076160;28;20078;-71
2022/06/10 05:45:06;;;;;;;0.43;0.43;;;13.50;99.90;;;;;;5066687;28;20043;-72
2022/06/10 05:47:34;;;;;;;0.20;0.20;;;13.50;99.90;;;;;;5071042;28;20040;-72
2022/06/10 05:50:08;;;;;;;0.20;0.20;;;13.50;99.90;;;;;;5078135;28;20100;-72
2022/06/10 05:52:34;;;;;;;0.30;0.30;;;13.50;99.90;;;;;;5080263;28;20024;-72
2022/06/10 05:55:02;;;;;;;1.35;0.93;;;13.60;99.90;;;;;;5071307;28;20032;-72
2022/06/10 05:57:30;;;;;;;0.10;0.10;;;13.70;99.90;;;;;;5074206;28;20024;-72
2022/06/10 05:59:57;;;;;;;0.10;0.10;;;13.80;99.90;;;;;;5074963;28;20123;-72
2022/06/10 06:02:25;;;;;;;0.00;0.00;;;13.80;99.90;;;;;;5053546;28;20468;-72
2022/06/10 06:04:51;;;;;;;0.10;0.10;;;14.10;99.90;;;;;;5071113;28;20078;-71
2022/06/10 06:07:27;;;;;;;0.50;0.50;;;14.20;99.90;;;;;;5077629;28;20024;-71
2022/06/10 06:09:53;;;;;;;0.10;0.10;;;14.20;99.90;;;;;;5091652;28;20099;-73
2022/06/10 06:12:20;;;;;;;0.40;0.40;;;14.30;99.90;;;;;;5073239;28;20031;-71
2022/06/10 06:14:46;;;;;;;0.10;0.10;;;14.30;99.90;;;;;;5091616;28;20475;-72
2022/06/10 06:17:14;;;;;;;0.30;0.30;;;14.50;99.90;;;;;;5064350;28;20070;-72
2022/06/10 06:19:41;;;;;;;0.10;0.10;;;14.50;99.90;;;;;;5069965;28;20016;-72
2022/06/10 06:22:07;;;;;;;0.20;0.20;;;14.50;99.90;;;;;;5054046;28;20036;-72
2022/06/10 06:24:34;;;;;;;0.38;0.38;;;14.50;99.90;;;;;;5075008;28;20472;-72
2022/06/10 06:27:01;;;;;;;0.10;0.10;;;14.30;99.90;;;;;;5053206;28;20108;-72
2022/06/10 06:29:27;;;;;;;0.10;0.10;;;14.40;99.90;;;;;;5071201;28;20020;-73
2022/06/10 06:31:53;;;;;;;0.10;0.10;;;14.60;99.90;;;;;;5072168;28;20028;-72
2022/06/10 06:34:22;;;;;;;0.45;0.45;;;14.80;99.90;;;;;;5088973;28;20387;-72
2022/06/10 06:36:51;;;;;;;0.40;0.40;;;14.90;99.90;;;;;;5094688;28;20515;-72
2022/06/10 06:39:19;;;;;;;0.10;0.10;;;14.60;99.90;;;;;;5094762;28;20036;-72
2022/06/10 06:41:45;;;;;;;0.10;0.10;;;14.30;99.90;;;;;;5076587;28;20109;-73
2022/06/10 06:44:11;;;;;;;0.10;0.10;;;14.30;99.90;;;;;;5094817;28;20038;-72
2022/06/10 06:46:39;;;;;;;0.10;0.10;;;14.50;99.90;;;;;;5094539;28;20024;-72
2022/06/10 06:49:08;;;;;;;0.10;0.10;;;14.60;99.90;;;;;;5089619;28;20048;-72
2022/06/10 06:51:35;;;;;;;0.10;0.10;;;14.60;99.90;;;;;;5082310;28;20021;-72
2022/06/10 06:54:01;;;;;;;0.10;0.10;;;14.60;99.90;;;;;;5074135;28;20120;-72
2022/06/10 06:56:28;;;;;;;0.10;0.10;;;14.80;99.90;;;;;;5074470;28;20103;-76
2022/06/10 06:58:55;;;;;;;0.10;0.10;;;15.10;99.90;;;;;;5057189;28;20023;-76
2022/06/10 07:01:21;;;;;;;0.10;0.10;;;15.10;99.90;;;;;;5039980;28;20093;-75
2022/06/10 07:03:47;;;;;;;2.35;1.52;;;15.20;99.90;;;;;;5074193;28;20035;-75
2022/06/10 07:06:13;;;;;;;0.13;0.13;;;15.20;99.90;;;;;;5074700;28;20024;-75
2022/06/10 07:08:39;;;;;;;0.38;0.38;;;15.10;99.90;;;;;;5064382;28;20088;-75
2022/06/10 07:11:06;;;;;;;7.22;0.90;;;15.00;99.90;;;;;;5089307;28;20099;-76
2022/06/10 07:13:33;;;;;;;0.20;0.20;;;15.00;99.90;;;;;;5076428;28;20028;-76
2022/06/10 07:16:01;;;;;;;0.10;0.10;;;15.10;99.90;;;;;;5094729;28;20096;-75
2022/06/10 07:18:30;;;;;;;0.08;0.08;;;15.30;99.90;;;;;;5076038;28;20480;-76
2022/06/10 07:20:56;;;;;;;0.10;0.10;;;15.30;99.90;;;;;;5094277;28;20023;-74
2022/06/10 07:23:22;;;;;;;0.77;0.77;;;15.30;99.90;;;;;;5060625;28;20036;-78
2022/06/10 07:25:48;;;;;;;0.43;0.43;;;15.30;99.90;;;;;;5038428;28;20016;-75
2022/06/10 07:28:14;;;;;;;0.10;0.10;;;15.20;99.90;;;;;;5060303;28;20101;-73
2022/06/10 07:30:44;;;;;;;0.10;0.10;;;15.30;99.90;;;;;;5062985;28;20032;-75
2022/06/10 07:33:11;;;;;;;0.30;0.30;;;15.20;99.90;;;;;;5051449;28;20028;-75
2022/06/10 07:35:38;;;;;;;0.63;0.30;;;15.00;99.90;;;;;;5061798;28;20125;-74
2022/06/10 07:38:05;;;;;;;0.20;0.20;;;14.90;99.90;;;;;;5052448;28;20082;-74
2022/06/10 07:43:21;;;;;;;0.10;0.10;;;15.10;99.90;;;;;;5063182;28;20029;-75
2022/06/10 07:45:47;;;;;;;0.20;0.20;;;15.20;99.90;;;;;;5038446;28;20046;-76
2022/06/10 07:48:13;;;;;;;0.35;0.35;;;15.60;99.90;;;;;;5051146;28;20028;-75
2022/06/10 07:50:41;;;;;;;0.10;0.10;;;15.90;99.90;;;;;;5062205;28;20052;-76
2022/06/10 07:53:08;;;;;;;0.45;0.40;;;16.20;99.90;;;;;;5051127;28;20032;-76
2022/06/10 07:55:35;;;;;;;0.68;0.68;;;16.30;99.90;;;;;;5062015;28;20043;-75
2022/06/10 07:58:00;;;;;;;0.10;0.10;;;16.20;99.90;;;;;;5035958;28;20086;-75
2022/06/10 08:00:26;;;;;;;0.32;0.32;;;16.10;99.90;;;;;;5061941;28;20658;-76
2022/06/10 08:02:53;;;;;;;0.10;0.10;;;16.10;99.90;;;;;;5037031;28;20040;-75
2022/06/10 08:05:20;;;;;;;0.10;0.10;;;16.10;99.90;;;;;;5051971;28;20038;-76
2022/06/10 08:07:46;;;;;;;0.10;0.10;;;16.10;99.90;;;;;;5061942;28;20111;-73
2022/06/10 08:10:22;;;;;;;0.10;0.10;;;16.00;99.90;;;;;;5051999;28;20504;-75
2022/06/10 08:12:48;;;;;;;0.13;0.13;;;16.00;99.90;;;;;;5051965;28;20065;-74
2022/06/10 08:15:16;;;;;;;0.63;0.63;;;15.80;99.90;;;;;;5061273;28;20028;-76
2022/06/10 08:17:42;;;;;;;0.10;0.10;;;15.80;99.90;;;;;;5051931;28;20055;-76
2022/06/10 08:20:15;;;;;;;0.10;0.10;;;15.80;99.90;;;;;;5033688;28;20853;-73
2022/06/10 08:22:41;;;;;;;0.00;0.00;;;15.70;99.90;;;;;;5035379;28;20032;-76
2022/06/10 08:25:09;;;;;;;0.08;0.08;;;15.50;99.90;;;;;;5050452;28;20515;-75
2022/06/10 08:27:36;;;;;;;0.15;0.15;;;15.60;99.90;;;;;;5061605;28;20058;-75
2022/06/10 08:30:05;;;;;;;0.10;0.10;;;15.50;99.90;;;;;;5051695;28;20403;-75
2022/06/10 08:32:31;;;;;;;2.28;0.40;;;15.40;99.90;;;;;;5061831;28;20512;-74
2022/06/10 08:34:56;;;;;;;0.10;0.10;;;15.30;99.90;;;;;;5053331;28;20039;-75
2022/06/10 08:37:22;;;;;;;0.10;0.10;;;15.30;99.90;;;;;;5050838;28;21193;-75
2022/06/10 08:39:48;;;;;;;0.10;0.10;;;15.40;99.90;;;;;;5060201;28;20119;-74
2022/06/10 08:42:29;;;;;;;0.47;0.47;;;15.60;99.90;;;;;;5051196;28;20029;-74
2022/06/10 08:44:57;;;;;;;0.00;0.00;;;15.60;99.90;;;;;;5052353;28;20388;-75
2022/06/10 08:47:52;;;;;;;0.22;0.22;;;16.00;99.90;;;;;;5050578;28;20085;-75
2022/06/10 08:50:42;;;;;;;0.20;0.20;;;16.20;99.90;;;;;;5050764;28;20143;-74
2022/06/10 08:53:35;;;;;;;0.45;0.45;;;16.60;99.90;;;;;;5061255;28;21295;-75
2022/06/10 08:56:05;;;;;;;0.57;0.57;;;17.00;99.90;;;;;;5059201;28;20059;-75
2022/06/10 08:58:39;;;;;;;0.10;0.10;;;17.50;99.90;;;;;;5061056;28;20119;-76
2022/06/10 09:01:16;;;;;;;0.10;0.10;;;17.80;99.90;;;;;;5051088;28;20068;-75
2022/06/10 09:03:49;;;;;;;0.10;0.10;;;17.90;99.90;;;;;;5048928;28;20047;-73
2022/06/10 09:06:29;;;;;;;0.10;0.10;;;18.00;99.90;;;;;;5060038;28;20017;-76
2022/06/10 09:09:00;;;;;;;0.32;0.32;;;18.70;99.90;;;;;;5035369;28;20029;-76
2022/06/10 09:11:37;;;;;;;0.20;0.13;;;19.20;99.90;;;;;;5051447;28;21116;-76
2022/06/10 09:14:16;;;;;;;0.10;0.10;;;18.80;99.90;;;;;;5061583;28;20032;-76
2022/06/10 09:16:51;;;;;;;0.10;0.10;;;18.50;99.90;;;;;;5049368;28;20075;-74
2022/06/10 09:19:36;;;;;;;0.00;0.00;;;18.00;99.90;;;;;;5051029;28;20481;-76
2022/06/10 09:22:19;;;;;;;0.22;0.22;;;18.20;99.90;;;;;;5049792;28;20030;-76
2022/06/10 09:25:17;;;;;;;0.10;0.10;;;18.20;99.90;;;;;;5051244;28;20032;-75
2022/06/10 09:27:48;;;;;;;0.08;0.08;;;18.60;99.90;;;;;;5026050;28;20040;-76
2022/06/10 09:30:17;;;;;;;0.10;0.10;;;19.10;99.90;;;;;;5059811;28;20029;-76
2022/06/10 09:32:57;;;;;;;0.35;0.35;;;19.60;99.90;;;;;;5051576;28;20020;-76
2022/06/10 09:35:34;;;;;;;0.00;0.00;;;19.40;99.90;;;;;;5050614;28;20021;-75
2022/06/10 09:38:22;;;;;;;0.10;0.10;;;19.20;99.90;;;;;;5051410;28;20037;-75
2022/06/10 09:41:17;;;;;;;0.03;0.03;;;18.90;99.90;;;;;;5031540;28;20103;-75
2022/06/10 09:44:11;;;;;;;0.25;0.25;;;18.70;99.90;;;;;;5052530;28;20044;-76
2022/06/10 09:46:50;;;;;;;2.53;0.93;;;18.40;99.90;;;;;;5060727;28;20455;-75
2022/06/10 09:49:31;;;;;;;0.00;0.00;;;18.20;99.90;;;;;;5060737;28;20410;-75
2022/06/10 09:52:04;;;;;;;0.10;0.10;;;18.10;99.90;;;;;;5060315;28;20033;-76
2022/06/10 09:54:31;;;;;;;0.05;0.05;;;17.90;99.90;;;;;;5034226;28;20035;-76
2022/06/10 09:57:19;;;;;;;0.00;0.00;;;18.10;99.90;;;;;;5052366;28;20115;-76
2022/06/10 10:00:01;;;;;;;0.10;0.10;;;18.10;99.90;;;;;;5054904;28;20041;-75
2022/06/10 10:02:58;;;;;;;0.10;0.10;;;18.10;99.90;;;;;;5058920;28;20037;-71
2022/06/10 10:05:33;;;;;;;0.10;0.10;;;17.90;99.90;;;;;;5058699;28;20043;-72
2022/06/10 10:08:30;;;;;;;0.28;0.28;;;17.90;99.90;;;;;;5062183;28;20025;-72
2022/06/10 10:11:10;;;;;;;0.00;0.00;;;17.80;99.90;;;;;;5062717;28;20037;-71
2022/06/10 10:13:53;;;;;;;0.10;0.10;;;17.80;99.90;;;;;;5063331;28;20028;-73
2022/06/10 10:16:38;;;;;;;0.10;0.10;;;18.00;99.90;;;;;;5062879;28;20036;-71
2022/06/10 10:19:34;;;;;;;0.00;0.00;;;17.80;99.90;;;;;;5063283;28;20025;-71
2022/06/10 10:22:03;;;;;;;0.00;0.00;;;17.70;99.90;;;;;;5052883;28;20028;-69
2022/06/10 10:24:37;;;;;;;0.20;0.20;;;17.70;99.90;;;;;;5063109;28;20366;-71
2022/06/10 10:27:18;;;;;;;0.10;0.10;;;17.70;99.90;;;;;;5062580;28;20028;-71
2022/06/10 10:29:47;;;;;;;0.08;0.08;;;17.70;99.90;;;;;;5063139;28;20052;-71
2022/06/10 10:32:15;;;;;;;0.00;0.00;;;17.60;99.90;;;;;;5062872;28;20043;-72
2022/06/10 10:34:45;;;;;;;0.10;0.10;;;17.70;99.90;;;;;;5062441;28;20132;-71
2022/06/10 10:37:32;;;;;;;0.10;0.10;;;17.80;99.90;;;;;;5050546;28;20040;-70
2022/06/10 10:40:14;;;;;;;0.10;0.10;;;17.80;99.90;;;;;;5062590;28;20032;-71
2022/06/10 10:42:42;;;;;;;0.10;0.10;;;17.80;99.90;;;;;;5061865;28;20039;-71
2022/06/10 10:45:21;;;;;;;0.20;0.20;;;17.90;99.90;;;;;;5051259;28;20036;-71
2022/06/10 10:47:53;;;;;;;0.10;0.10;;;18.00;99.90;;;;;;5061839;28;20035;-69
2022/06/10 10:50:34;;;;;;;0.10;0.10;;;18.10;99.90;;;;;;5052153;28;20638;-70
2022/06/10 10:53:18;;;;;;;0.05;0.05;;;18.20;99.90;;;;;;5052482;28;20029;-70
2022/06/10 10:55:49;;;;;;;0.55;0.55;;;18.20;99.90;;;;;;5051224;28;20165;-71
2022/06/10 10:58:22;;;;;;;0.10;0.10;;;18.30;99.90;;;;;;5051853;28;20029;-71
2022/06/10 11:01:02;;;;;;;0.10;0.10;;;18.40;99.90;;;;;;5061613;28;20039;-72
2022/06/10 11:03:36;;;;;;;0.20;0.20;;;18.50;99.90;;;;;;5061549;28;20481;-71
2022/06/10 11:06:05;;;;;;;0.03;0.03;;;18.60;99.90;;;;;;5062247;28;20068;-70
2022/06/10 11:08:34;;;;;;;0.30;0.30;;;18.80;99.90;;;;;;5049354;28;20033;-70
2022/06/10 11:11:11;;;;;;;0.00;0.00;;;19.20;99.90;;;;;;5051388;28;20111;-71
2022/06/10 11:13:41;;;;;;;0.00;0.00;;;19.20;99.90;;;;;;5052920;28;20404;-70
2022/06/10 11:16:31;;;;;;;0.00;0.00;;;19.80;98.90;;;;;;5036375;28;20039;-72
2022/06/10 11:19:14;;;;;;;0.45;0.45;;;20.70;97.10;;;;;;5061690;28;20058;-72
2022/06/10 11:21:51;;;;;;;0.35;0.35;;;21.00;94.10;;;;;;5071903;28;20035;-73
2022/06/10 11:24:22;;;;;;;0.20;0.20;;;20.70;93.60;;;;;;5073642;28;20021;-72
2022/06/10 11:26:50;;;;;;;;;;;20.70;93.30;;;;;;5074301;28;20108;-72
2022/06/10 11:29:16;;;;;;;0.00;0.00;;;20.60;92.00;;;;;;5074424;28;20264;-72
2022/06/10 11:31:46;;;;;;;0.32;0.30;;;20.40;90.90;;;;;;5079903;28;20022;-72
2022/06/10 11:34:32;;;;;;;0.10;0.10;;;20.30;92.00;;;;;;5064588;28;20036;-73
2022/06/10 11:36:58;;;;;;;0.00;0.00;;;20.20;91.60;;;;;;5045750;22;20041;-74
2022/06/10 11:39:33;;;;;;;0.00;0.00;;;20.20;93.70;;;;;;5059033;28;20059;-74
2022/06/10 11:42:14;;;;;;;0.08;0.08;;;20.80;96.00;;;;;;5035796;28;20480;-74
2022/06/10 11:45:03;;;;;;;0.00;0.00;;;21.00;95.10;;;;;;5018966;28;20083;-75
2022/06/10 11:47:35;;;;;;;1.75;0.68;;;21.10;94.20;;;;;;5042643;28;20067;-74
2022/06/10 11:50:09;;;;;;;0.00;0.00;;;21.60;92.80;;;;;;5053395;28;20107;-75
2022/06/10 11:52:53;;;;;;;0.00;0.00;;;21.70;92.90;;;;;;5053396;28;20144;-75
2022/06/10 11:55:26;;;;;;;0.15;0.15;;;21.70;92.30;;;;;;5035443;28;20055;-75
2022/06/10 12:00:55;;;;;;;;;;;21.50;89.70;;;;;;5033683;28;20033;-74
2022/06/10 12:03:29;;;;;;;0.10;0.10;;;21.50;89.70;;;;;;5033398;28;19909;-75
2022/06/10 12:06:19;;;;;;;0.00;0.00;;;21.30;86.80;;;;;;5032753;28;20370;-75
2022/06/10 12:09:28;;;;;;;0.30;0.30;;;21.00;90.00;;;;;;5033023;28;20094;-75
2022/06/10 12:12:14;;;;;;;0.25;0.25;;;20.50;89.80;;;;;;4952648;28;20031;-75
2022/06/10 12:14:46;;;;;;;0.10;0.10;;;20.20;91.20;;;;;;5028744;28;20037;-75
2022/06/10 12:17:33;;;;;;;0.35;0.28;;;20.00;91.10;;;;;;5052963;28;20028;-74
2022/06/10 12:20:16;;;;;;;0.22;0.22;;;19.90;92.40;;;;;;5034915;28;20017;-75
2022/06/10 12:22:42;;;;;;;0.00;0.00;;;19.90;94.20;;;;;;5052915;28;20104;-75
2022/06/10 12:25:21;;;;;;;2.00;0.80;;;19.90;94.10;;;;;;5034909;28;20032;-75
2022/06/10 12:28:07;;;;;;;0.00;0.00;;;19.90;94.00;;;;;;5034826;28;20063;-74
2022/06/10 12:30:47;;;;;;;0.10;0.10;;;20.10;94.20;;;;;;5052088;28;20029;-75
2022/06/10 12:33:27;;;;;;;0.00;0.00;;;19.90;93.90;;;;;;5018016;28;20028;-75
2022/06/10 12:35:55;;;;;;;0.00;0.00;;;20.10;93.70;;;;;;5034671;28;20416;-74
2022/06/10 12:38:30;;;;;;;0.00;0.00;;;20.20;93.50;;;;;;5018125;28;20025;-74
2022/06/10 12:41:20;;;;;;;0.00;0.00;;;20.10;93.40;;;;;;5052631;28;20508;-75
2022/06/10 12:43:58;;;;;;;0.08;0.08;;;20.10;93.00;;;;;;5052436;28;20052;-75
2022/06/10 12:46:35;;;;;;;0.08;0.08;;;20.10;93.10;;;;;;5034532;28;20389;-74
2022/06/10 12:49:30;;;;;;;0.60;0.60;;;19.90;92.10;;;;;;5052338;28;20045;-74
2022/06/10 12:52:21;;;;;;;0.15;0.15;;;20.00;92.20;;;;;;5013628;28;20029;-75
2022/06/10 12:54:58;;;;;;;1.95;1.65;;;20.10;92.00;;;;;;5017941;28;20021;-75
2022/06/10 12:57:56;;;;;;;0.63;0.63;;;20.30;91.70;;;;;;5017950;28;20033;-75
2022/06/10 13:00:22;;;;;;;0.20;0.20;;;20.40;91.10;;;;;;4980947;28;20447;-75
2022/06/10 13:02:55;;;;;;;0.25;0.25;;;20.30;90.90;;;;;;5034129;28;20108;-75
2022/06/10 13:05:32;;;;;;;0.10;0.10;;;20.60;90.80;;;;;;5017865;28;20521;-75
2022/06/10 13:07:59;;;;;;;0.50;0.50;;;20.60;90.70;;;;;;5033912;28;20029;-75
2022/06/10 13:10:34;;;;;;;1.40;1.30;;;20.40;90.50;;;;;;5017683;28;20025;-75
2022/06/10 13:13:22;;;;;;;1.75;1.10;;;20.30;90.30;;;;;;5017744;28;20120;-75
2022/06/10 13:15:49;;;;;;;0.00;0.00;;;20.20;90.50;;;;;;5034197;28;20025;-75
2022/06/10 13:18:18;;;;;;;0.00;0.00;;;20.40;85.90;;;;;;5017464;28;20025;-74
2022/06/10 13:20:46;;;;;;;0.10;0.10;;;20.30;88.30;;;;;;5034092;28;20025;-76
2022/06/10 13:23:13;;;;;;;0.00;0.00;;;20.30;87.90;;;;;;5034026;28;20064;-74
2022/06/10 13:25:40;;;;;;;0.00;0.00;;;20.50;88.90;;;;;;5051902;28;20484;-75
2022/06/10 13:28:23;;;;;;;0.00;0.00;;;20.50;89.00;;;;;;5033873;28;20051;-72
2022/06/10 13:30:50;;;;;;;0.60;0.55;;;20.60;84.20;;;;;;5034023;28;20111;-72
2022/06/10 13:33:18;;;;;;;0.45;0.45;;;20.60;85.40;;;;;;5033712;28;20086;-72